Time;durP1;ratioP1;P1;durP2;ratioP2;P2;SDS_P1;SDS_P2;PMS_P1;PMS_P2;Temp;Humidity;BMP_temperature;BMP_pressure;BME280_temperature;BME280_humidity;BME280_pressure;Samples;Min_cycle;Max_cycle;Signal;HPM_P1;HPM_P2
2021/09/18 00:01:29;;;;;;;24.60;22.20;;;12.90;99.90;;;;;;5057421;28;20497;-50
2021/09/18 00:03:58;;;;;;;24.27;21.80;;;12.90;99.90;;;;;;5057143;28;20477;-48
2021/09/18 00:06:26;;;;;;;27.50;24.07;;;12.90;99.90;;;;;;5057183;28;20496;-47
2021/09/18 00:08:56;;;;;;;23.03;20.73;;;12.90;99.90;;;;;;5056639;28;20501;-53
2021/09/18 00:11:23;;;;;;;25.03;22.43;;;12.80;99.90;;;;;;5039502;28;20487;-47
2021/09/18 00:13:52;;;;;;;26.03;22.93;;;12.90;99.90;;;;;;5037091;28;20833;-55
2021/09/18 00:16:19;;;;;;;31.70;28.33;;;12.90;99.90;;;;;;5037234;28;20438;-50
2021/09/18 00:18:48;;;;;;;32.00;28.70;;;12.90;99.90;;;;;;5036862;28;20499;-51
2021/09/18 00:21:15;;;;;;;31.97;28.60;;;12.90;99.90;;;;;;5036968;28;20881;-52
2021/09/18 00:23:42;;;;;;;31.13;28.13;;;12.80;99.90;;;;;;5036748;28;20507;-48
2021/09/18 00:26:09;;;;;;;38.13;28.53;;;12.80;99.90;;;;;;5040725;28;20526;-53
2021/09/18 00:28:37;;;;;;;28.87;25.90;;;12.80;99.90;;;;;;5056296;28;20494;-53
2021/09/18 00:31:04;;;;;;;28.83;25.93;;;12.70;99.90;;;;;;5056818;28;20473;-47
2021/09/18 00:33:31;;;;;;;26.63;23.67;;;12.70;99.90;;;;;;5056545;28;20505;-48
2021/09/18 00:36:00;;;;;;;28.33;25.30;;;12.70;99.90;;;;;;5056886;28;20454;-51
2021/09/18 00:38:27;;;;;;;27.67;24.97;;;12.60;99.90;;;;;;5056844;28;20972;-52
2021/09/18 00:41:02;;;;;;;25.90;23.40;;;12.60;99.90;;;;;;5056385;28;20466;-50
2021/09/18 00:43:29;;;;;;;28.00;25.17;;;12.70;99.90;;;;;;5056346;28;20508;-50
2021/09/18 00:45:56;;;;;;;26.23;23.53;;;12.70;99.90;;;;;;5056786;28;20493;-50
2021/09/18 00:48:23;;;;;;;25.30;22.60;;;12.70;99.90;;;;;;5056747;28;20587;-50
2021/09/18 00:50:50;;;;;;;25.30;22.80;;;12.70;99.90;;;;;;5055686;28;20502;-55
2021/09/18 00:53:22;;;;;;;26.37;23.60;;;12.70;99.90;;;;;;5039839;28;20467;-55
2021/09/18 00:55:49;;;;;;;24.23;21.83;;;12.70;99.90;;;;;;5073220;28;20461;-53
2021/09/18 00:58:17;;;;;;;25.23;22.63;;;12.70;99.90;;;;;;5077089;28;20509;-54
2021/09/18 01:00:44;;;;;;;25.80;23.33;;;12.70;99.90;;;;;;5080588;28;20471;-50
2021/09/18 01:03:11;;;;;;;27.33;24.53;;;12.70;99.90;;;;;;5080495;28;20768;-54
2021/09/18 01:05:41;;;;;;;25.77;21.90;;;12.70;99.90;;;;;;5080312;28;20962;-50
2021/09/18 01:08:13;;;;;;;26.10;23.70;;;12.70;99.90;;;;;;5080770;28;20457;-53
2021/09/18 01:10:41;;;;;;;26.23;23.50;;;12.60;99.90;;;;;;5068103;28;20458;-55
2021/09/18 01:13:11;;;;;;;25.53;23.07;;;12.60;99.90;;;;;;5060104;28;20814;-53
2021/09/18 01:15:39;;;;;;;27.90;25.10;;;12.60;99.90;;;;;;5060228;28;20488;-50
2021/09/18 01:18:09;;;;;;;26.63;23.67;;;12.70;99.90;;;;;;5060325;28;20528;-57
2021/09/18 01:20:39;;;;;;;26.83;24.17;;;12.70;99.90;;;;;;5060242;28;20481;-50
2021/09/18 01:23:08;;;;;;;26.50;23.97;;;12.70;99.90;;;;;;5060091;28;20512;-53
2021/09/18 01:25:40;;;;;;;25.33;22.83;;;12.70;99.90;;;;;;5060248;28;20549;-55
2021/09/18 01:28:08;;;;;;;27.47;24.67;;;12.80;99.90;;;;;;5040096;28;20490;-51
2021/09/18 01:30:36;;;;;;;27.33;24.73;;;12.70;99.90;;;;;;5039670;28;20467;-57
2021/09/18 01:33:05;;;;;;;25.77;23.40;;;12.80;99.90;;;;;;5039920;28;20827;-55
2021/09/18 01:35:33;;;;;;;26.53;23.70;;;12.90;99.90;;;;;;5055582;28;20501;-54
2021/09/18 01:38:02;;;;;;;27.97;25.00;;;12.90;99.90;;;;;;5060211;28;20469;-52
2021/09/18 01:40:33;;;;;;;26.73;24.00;;;12.90;99.90;;;;;;5060140;28;20831;-53
2021/09/18 01:43:03;;;;;;;25.67;23.13;;;12.90;99.90;;;;;;5059471;28;20515;-54
2021/09/18 01:45:34;;;;;;;26.37;23.70;;;12.90;99.90;;;;;;5059464;28;20904;-50
2021/09/18 01:48:07;;;;;;;29.27;26.17;;;12.80;99.90;;;;;;5060062;28;20462;-50
2021/09/18 01:50:40;;;;;;;27.07;24.37;;;12.90;99.90;;;;;;5059667;28;20468;-52
2021/09/18 01:53:08;;;;;;;26.40;23.73;;;12.90;99.90;;;;;;5059500;28;20494;-56
2021/09/18 01:55:36;;;;;;;26.13;23.37;;;12.90;99.90;;;;;;5059440;28;20489;-55
2021/09/18 01:58:06;;;;;;;25.30;22.80;;;12.80;99.90;;;;;;5059861;28;20516;-54
2021/09/18 02:00:36;;;;;;;25.50;22.77;;;12.80;99.90;;;;;;5059010;28;20525;-56
2021/09/18 02:03:04;;;;;;;24.40;21.93;;;12.80;99.90;;;;;;5059583;28;20508;-56
2021/09/18 02:05:31;;;;;;;24.93;22.33;;;12.80;99.90;;;;;;5059511;28;20493;-52
2021/09/18 02:07:58;;;;;;;23.87;21.67;;;12.80;99.90;;;;;;5059464;28;20490;-55
2021/09/18 02:10:28;;;;;;;24.77;22.37;;;12.80;99.90;;;;;;5057839;28;20817;-54
2021/09/18 02:12:56;;;;;;;30.73;22.33;;;12.80;99.90;;;;;;5059345;28;20497;-54
2021/09/18 02:15:27;;;;;;;24.60;22.17;;;12.80;99.90;;;;;;5058746;28;20916;-56
2021/09/18 02:17:54;;;;;;;25.03;22.60;;;12.80;99.90;;;;;;5059207;28;20458;-51
2021/09/18 02:20:23;;;;;;;25.00;22.60;;;12.80;99.90;;;;;;5059075;28;20497;-56
2021/09/18 02:22:50;;;;;;;26.80;22.40;;;12.90;99.90;;;;;;5059070;28;20547;-53
2021/09/18 02:25:18;;;;;;;26.00;23.50;;;12.90;99.90;;;;;;5059132;28;20497;-50
2021/09/18 02:27:46;;;;;;;25.00;22.60;;;12.90;99.90;;;;;;5058327;28;20593;-51
2021/09/18 02:30:18;;;;;;;25.77;23.37;;;12.90;99.90;;;;;;5058954;28;20458;-56
2021/09/18 02:32:47;;;;;;;27.13;24.57;;;12.90;99.90;;;;;;5059125;28;20501;-57
2021/09/18 02:35:17;;;;;;;25.47;22.73;;;12.90;99.90;;;;;;5058619;28;20497;-54
2021/09/18 02:37:47;;;;;;;28.60;25.70;;;12.90;99.90;;;;;;5058790;28;20493;-53
2021/09/18 02:40:16;;;;;;;26.13;23.60;;;12.90;99.90;;;;;;5058724;28;20475;-53
2021/09/18 02:42:46;;;;;;;29.07;26.30;;;12.80;99.90;;;;;;5058847;28;20509;-56
2021/09/18 02:45:14;;;;;;;31.53;28.03;;;12.90;99.90;;;;;;5058040;28;20470;-56
2021/09/18 02:47:42;;;;;;;30.50;27.50;;;12.90;99.90;;;;;;5058589;28;20544;-55
2021/09/18 02:50:13;;;;;;;32.80;29.50;;;12.90;99.90;;;;;;5058548;28;20920;-52
2021/09/18 02:52:40;;;;;;;32.43;29.10;;;12.80;99.90;;;;;;5058929;28;20513;-52
2021/09/18 02:55:09;;;;;;;31.27;27.20;;;12.80;99.90;;;;;;5058022;28;20490;-57
2021/09/18 02:57:36;;;;;;;30.57;27.30;;;12.80;99.90;;;;;;5058726;28;20482;-54
2021/09/18 03:00:05;;;;;;;32.63;27.10;;;12.70;99.90;;;;;;5058223;28;20502;-50
2021/09/18 03:02:32;;;;;;;31.93;28.43;;;12.70;99.90;;;;;;5058452;28;20767;-54
2021/09/18 03:04:59;;;;;;;32.97;28.50;;;12.70;99.90;;;;;;5057901;28;20462;-52
2021/09/18 03:07:30;;;;;;;34.10;30.43;;;12.60;99.90;;;;;;5058099;28;20493;-56
2021/09/18 03:09:57;;;;;;;33.50;29.90;;;12.60;99.90;;;;;;5058180;28;20458;-54
2021/09/18 03:12:24;;;;;;;33.67;30.40;;;12.50;99.90;;;;;;5058034;28;20512;-50
2021/09/18 03:14:50;;;;;;;33.43;30.03;;;12.40;99.90;;;;;;5057889;28;20509;-52
2021/09/18 03:17:20;;;;;;;32.23;28.57;;;12.40;99.90;;;;;;5058052;28;20486;-51
2021/09/18 03:19:47;;;;;;;30.27;27.13;;;12.30;99.90;;;;;;5058079;28;20462;-56
2021/09/18 03:22:14;;;;;;;28.07;25.33;;;12.30;99.90;;;;;;5057502;28;20504;-55
2021/09/18 03:24:42;;;;;;;31.47;27.90;;;12.20;99.90;;;;;;5058002;28;20912;-54
2021/09/18 03:27:09;;;;;;;30.40;26.63;;;12.20;99.90;;;;;;5057279;28;20494;-51
2021/09/18 03:29:36;;;;;;;29.60;26.50;;;12.20;99.90;;;;;;5058036;28;20502;-56
2021/09/18 03:32:04;;;;;;;28.90;25.90;;;12.20;99.90;;;;;;5057740;28;20489;-53
2021/09/18 03:34:31;;;;;;;29.93;26.87;;;12.20;99.90;;;;;;5057749;28;20466;-54
2021/09/18 03:36:58;;;;;;;27.77;24.83;;;12.10;99.90;;;;;;5057385;28;20486;-49
2021/09/18 03:39:25;;;;;;;29.70;26.50;;;12.10;99.90;;;;;;5057759;28;20477;-53
2021/09/18 03:41:58;;;;;;;28.37;25.60;;;12.00;99.90;;;;;;5057581;28;20462;-53
2021/09/18 03:44:26;;;;;;;30.10;26.90;;;12.00;99.90;;;;;;5057622;28;20572;-52
2021/09/18 03:46:53;;;;;;;29.23;26.33;;;12.00;99.90;;;;;;5057210;28;20501;-55
2021/09/18 03:49:19;;;;;;;31.20;27.30;;;11.90;99.90;;;;;;5057121;28;20555;-53
2021/09/18 03:51:46;;;;;;;30.30;26.83;;;11.90;99.90;;;;;;5056943;28;20497;-51
2021/09/18 03:54:13;;;;;;;32.43;27.67;;;11.90;99.90;;;;;;5057375;28;20465;-56
2021/09/18 03:56:40;;;;;;;32.90;29.53;;;11.90;99.90;;;;;;5055212;28;20507;-52
2021/09/18 03:59:08;;;;;;;29.97;26.87;;;11.80;99.90;;;;;;5050695;28;20528;-57
2021/09/18 04:01:36;;;;;;;28.77;25.73;;;11.80;99.90;;;;;;5051252;28;20820;-57
2021/09/18 04:04:03;;;;;;;31.80;28.33;;;11.80;99.90;;;;;;5057396;28;20454;-52
2021/09/18 04:06:29;;;;;;;30.80;27.60;;;11.70;99.90;;;;;;5057054;28;20458;-56
2021/09/18 04:08:56;;;;;;;32.47;26.23;;;11.60;99.90;;;;;;5047273;28;20940;-54
2021/09/18 04:11:24;;;;;;;29.80;26.70;;;11.60;99.90;;;;;;5054253;28;20881;-55
2021/09/18 04:13:51;;;;;;;31.63;28.27;;;11.60;99.90;;;;;;5042197;28;20457;-54
2021/09/18 04:16:21;;;;;;;28.57;24.80;;;11.70;99.90;;;;;;5038700;28;20502;-55
2021/09/18 04:18:48;;;;;;;28.10;25.10;;;11.60;99.90;;;;;;5047552;28;20456;-53
2021/09/18 04:21:16;;;;;;;28.53;25.70;;;11.60;99.90;;;;;;5036700;28;20925;-54
2021/09/18 04:23:43;;;;;;;28.70;25.70;;;11.60;99.90;;;;;;5044540;28;20470;-49
2021/09/18 04:26:11;;;;;;;28.63;25.63;;;11.60;99.90;;;;;;5050508;28;20508;-54
2021/09/18 04:28:38;;;;;;;32.07;28.70;;;11.60;99.90;;;;;;5037755;28;20505;-55
2021/09/18 04:31:05;;;;;;;30.30;27.00;;;11.60;99.90;;;;;;5038050;28;20481;-57
2021/09/18 04:33:36;;;;;;;30.33;27.10;;;11.70;99.90;;;;;;5037239;28;21020;-59
2021/09/18 04:36:03;;;;;;;28.67;25.53;;;11.60;99.90;;;;;;5041330;28;20521;-55
2021/09/18 04:38:31;;;;;;;32.07;28.60;;;11.60;99.90;;;;;;5040642;28;20444;-57
2021/09/18 04:40:58;;;;;;;31.87;28.27;;;11.60;99.90;;;;;;5040828;28;20787;-59
2021/09/18 04:43:27;;;;;;;33.60;27.90;;;11.70;99.90;;;;;;5040887;28;20897;-57
2021/09/18 04:45:54;;;;;;;34.90;31.13;;;11.60;99.90;;;;;;5040869;28;20829;-58
2021/09/18 04:48:21;;;;;;;34.77;30.80;;;11.60;99.90;;;;;;5040862;28;20984;-59
2021/09/18 04:50:50;;;;;;;34.63;29.40;;;11.70;99.90;;;;;;5040606;28;20467;-58
2021/09/18 04:53:17;;;;;;;32.37;27.90;;;11.60;99.90;;;;;;5040372;28;20528;-59
2021/09/18 04:55:45;;;;;;;33.77;30.07;;;11.60;99.90;;;;;;5040593;28;20502;-58
2021/09/18 04:58:12;;;;;;;34.30;28.70;;;11.60;99.90;;;;;;5040770;28;20509;-57
2021/09/18 05:00:39;;;;;;;30.33;27.07;;;11.50;99.90;;;;;;5040797;28;20486;-60
2021/09/18 05:03:07;;;;;;;32.57;27.90;;;11.50;99.90;;;;;;5040409;28;20778;-59
2021/09/18 05:05:37;;;;;;;31.87;28.47;;;11.50;99.90;;;;;;5040812;28;20507;-58
2021/09/18 05:08:06;;;;;;;31.27;26.00;;;11.50;99.90;;;;;;5040062;28;20494;-59
2021/09/18 05:10:33;;;;;;;31.93;28.47;;;11.60;99.90;;;;;;5040372;28;20912;-60
2021/09/18 05:13:02;;;;;;;38.03;26.93;;;11.50;99.90;;;;;;5040149;28;20465;-60
2021/09/18 05:15:29;;;;;;;29.83;26.40;;;11.50;99.90;;;;;;5040378;28;20978;-59
2021/09/18 05:17:56;;;;;;;32.33;27.00;;;11.50;99.90;;;;;;5040345;28;20486;-60
2021/09/18 05:20:23;;;;;;;30.07;26.80;;;11.50;99.90;;;;;;5040383;28;20513;-60
2021/09/18 05:22:50;;;;;;;32.17;28.80;;;11.60;99.90;;;;;;5039562;28;20509;-60
2021/09/18 05:25:19;;;;;;;31.33;26.20;;;11.60;99.90;;;;;;5040179;28;20521;-57
2021/09/18 05:27:46;;;;;;;29.13;26.23;;;11.50;99.90;;;;;;5056525;28;20526;-58
2021/09/18 05:30:13;;;;;;;31.07;26.23;;;11.50;99.90;;;;;;5060200;28;20528;-59
2021/09/18 05:32:40;;;;;;;29.53;26.33;;;11.50;99.90;;;;;;5060110;28;20498;-60
2021/09/18 05:35:08;;;;;;;28.27;24.00;;;11.60;99.90;;;;;;5059585;28;20505;-60
2021/09/18 05:37:35;;;;;;;29.87;26.77;;;11.60;99.90;;;;;;5060031;28;20504;-60
2021/09/18 05:40:02;;;;;;;27.67;24.67;;;11.60;99.90;;;;;;5059985;28;20515;-59
2021/09/18 05:42:34;;;;;;;30.83;27.50;;;11.70;99.90;;;;;;5060046;28;20480;-59
2021/09/18 05:45:05;;;;;;;30.53;27.33;;;11.80;99.90;;;;;;5059668;28;20469;-60
2021/09/18 05:47:42;;;;;;;29.73;26.73;;;11.90;99.90;;;;;;5059346;28;20525;-59
2021/09/18 05:50:09;;;;;;;31.90;27.27;;;11.90;99.90;;;;;;5060002;28;20446;-60
2021/09/18 05:52:36;;;;;;;29.93;26.90;;;12.00;99.90;;;;;;5059985;28;20502;-60
2021/09/18 05:55:03;;;;;;;31.03;26.97;;;12.00;99.90;;;;;;5059656;28;20499;-60
2021/09/18 05:57:33;;;;;;;29.30;26.20;;;12.00;99.90;;;;;;5059388;28;20475;-59
2021/09/18 06:00:00;;;;;;;30.50;27.40;;;12.10;99.90;;;;;;5059595;28;20831;-60
2021/09/18 06:02:27;;;;;;;32.23;27.60;;;12.20;99.90;;;;;;5058817;28;20523;-60
2021/09/18 06:04:54;;;;;;;31.80;28.50;;;12.20;99.90;;;;;;5058919;28;20470;-60
2021/09/18 06:07:21;;;;;;;31.97;28.67;;;12.30;99.90;;;;;;5058882;28;20588;-60
2021/09/18 06:09:50;;;;;;;32.10;28.60;;;12.40;99.90;;;;;;5053908;28;20917;-59
2021/09/18 06:12:17;;;;;;;33.40;29.83;;;12.40;99.90;;;;;;5039390;28;20553;-60
2021/09/18 06:14:48;;;;;;;34.13;30.53;;;12.50;99.90;;;;;;5039426;28;20472;-60
2021/09/18 06:17:19;;;;;;;33.20;29.13;;;12.50;99.90;;;;;;5039212;28;20866;-60
2021/09/18 06:19:46;;;;;;;34.50;28.77;;;12.70;99.90;;;;;;5039512;28;21008;-60
2021/09/18 06:22:15;;;;;;;38.60;30.30;;;12.70;99.90;;;;;;5039424;28;20489;-60
2021/09/18 06:24:43;;;;;;;35.63;30.07;;;12.80;99.90;;;;;;5039474;28;20459;-60
2021/09/18 06:27:11;;;;;;;36.97;33.00;;;12.90;99.90;;;;;;5050518;28;20462;-60
2021/09/18 06:29:39;;;;;;;34.97;30.80;;;13.00;99.90;;;;;;5058831;28;20508;-60
2021/09/18 06:32:08;;;;;;;33.77;30.17;;;13.10;99.90;;;;;;5057180;28;20458;-60
2021/09/18 06:34:38;;;;;;;38.00;34.07;;;13.20;99.90;;;;;;5057672;28;20892;-60
2021/09/18 06:37:06;;;;;;;38.90;34.50;;;13.20;99.90;;;;;;5057841;28;20453;-60
2021/09/18 06:39:33;;;;;;;38.27;34.10;;;13.30;99.90;;;;;;5058111;28;20474;-60
2021/09/18 06:42:02;;;;;;;45.47;40.67;;;13.30;99.90;;;;;;5057963;28;20483;-60
2021/09/18 06:44:29;;;;;;;45.50;40.83;;;13.30;99.90;;;;;;5055365;28;20457;-60
2021/09/18 06:46:56;;;;;;;47.43;42.27;;;13.40;99.90;;;;;;5057770;28;20818;-61
2021/09/18 06:49:24;;;;;;;48.03;42.83;;;13.40;99.90;;;;;;5057652;28;20522;-60
2021/09/18 06:51:51;;;;;;;51.50;42.60;;;13.50;99.90;;;;;;5058243;28;20559;-60
2021/09/18 06:54:19;;;;;;;52.20;44.40;;;13.60;99.90;;;;;;5058517;28;20516;-60
2021/09/18 06:56:45;;;;;;;51.07;42.67;;;13.70;99.90;;;;;;5053300;28;20505;-60
2021/09/18 06:59:14;;;;;;;50.83;45.00;;;13.90;99.90;;;;;;5057575;28;20458;-60
2021/09/18 07:01:41;;;;;;;45.97;41.07;;;14.20;99.90;;;;;;5057346;28;20471;-60
2021/09/18 07:04:07;;;;;;;45.57;40.27;;;14.30;1.00;;;;;;5057921;28;20498;-60
2021/09/18 07:06:36;;;;;;;46.00;41.00;;;14.50;1.00;;;;;;5058028;28;20516;-59
2021/09/18 07:09:03;;;;;;;51.23;45.67;;;14.80;99.90;;;;;;5057646;28;20529;-59
2021/09/18 07:11:30;;;;;;;48.37;41.57;;;15.00;99.90;;;;;;5040436;28;20499;-60
2021/09/18 07:13:57;;;;;;;46.83;37.80;;;15.30;99.90;;;;;;5057148;28;20466;-59
2021/09/18 07:16:24;;;;;;;40.13;35.93;;;15.40;99.90;;;;;;5054737;28;20458;-59
2021/09/18 07:18:52;;;;;;;46.37;41.27;;;15.80;99.90;;;;;;5056591;28;20560;-59
2021/09/18 07:21:21;;;;;;;50.63;44.80;;;15.90;10.60;;;;;;5056695;28;20490;-59
2021/09/18 07:23:49;;;;;;;46.30;41.40;;;16.20;1.00;;;;;;5057460;28;20463;-59
2021/09/18 07:26:16;;;;;;;44.07;39.30;;;16.30;99.90;;;;;;5057393;28;20513;-58
2021/09/18 07:28:46;;;;;;;49.90;44.43;;;16.50;99.90;;;;;;5056482;28;20924;-58
2021/09/18 07:31:13;;;;;;;49.30;44.00;;;16.70;99.90;;;;;;5057089;28;20448;-59
2021/09/18 07:33:40;;;;;;;47.67;42.70;;;16.80;99.90;;;;;;5057609;28;20837;-59
2021/09/18 07:36:08;;;;;;;42.60;38.37;;;17.00;99.90;;;;;;5057926;28;20485;-59
2021/09/18 07:38:38;;;;;;;45.80;40.83;;;17.00;15.30;;;;;;5057517;28;20494;-59
2021/09/18 07:41:07;;;;;;;47.70;42.00;;;17.00;6.20;;;;;;5057348;28;20468;-59
2021/09/18 07:43:38;;;;;;;47.00;41.07;;;17.20;53.70;;;;;;5057302;28;20466;-58
2021/09/18 07:46:05;;;;;;;48.30;43.03;;;17.20;1.00;;;;;;5057565;28;20560;-56
2021/09/18 07:48:32;;;;;;;51.17;45.77;;;17.40;18.80;;;;;;5057744;28;20525;-57
2021/09/18 07:51:02;;;;;;;51.77;46.40;;;17.50;1.00;;;;;;5057067;28;20479;-53
2021/09/18 07:53:29;;;;;;;56.30;50.20;;;17.60;1.00;;;;;;5057286;28;20461;-57
2021/09/18 07:55:56;;;;;;;50.53;44.93;;;17.80;1.00;;;;;;5057334;28;20490;-56
2021/09/18 07:58:24;;;;;;;47.67;42.87;;;18.00;1.00;;;;;;5056961;28;20489;-58
2021/09/18 08:00:53;;;;;;;50.83;45.47;;;18.20;1.00;;;;;;5047994;28;20491;-56
2021/09/18 08:03:20;;;;;;;45.10;39.90;;;18.20;1.00;;;;;;5037158;28;20909;-55
2021/09/18 08:05:47;;;;;;;50.93;45.00;;;18.30;1.00;;;;;;5037189;28;20520;-54
2021/09/18 08:08:20;;;;;;;53.27;47.60;;;18.60;1.00;;;;;;5036493;28;20790;-58
2021/09/18 08:10:48;;;;;;;53.63;48.20;;;18.80;1.00;;;;;;5036760;28;20482;-57
2021/09/18 08:13:15;;;;;;;55.47;46.20;;;18.80;1.00;;;;;;5036584;28;20518;-53
2021/09/18 08:15:47;;;;;;;67.40;57.27;;;18.90;1.00;;;;;;5036974;28;20502;-54
2021/09/18 08:18:14;;;;;;;62.40;55.73;;;19.10;1.00;;;;;;5037310;28;20488;-51
2021/09/18 08:20:41;;;;;;;62.17;55.83;;;19.60;1.00;;;;;;5037279;28;20463;-54
2021/09/18 08:23:09;;;;;;;67.60;59.57;;;19.80;1.00;;;;;;5036969;28;20913;-54
2021/09/18 08:25:39;;;;;;;63.83;57.07;;;20.10;1.00;;;;;;5036892;28;20463;-50
2021/09/18 08:28:11;;;;;;;69.00;61.80;;;20.20;1.00;;;;;;5056224;28;20533;-53
2021/09/18 08:30:38;;;;;;;80.87;72.47;;;20.60;1.00;;;;;;5056627;28;20462;-49
2021/09/18 08:33:09;;;;;;;71.37;63.67;;;20.60;1.00;;;;;;5056540;28;20490;-54
2021/09/18 08:35:37;;;;;;;65.33;58.47;;;20.70;1.00;;;;;;5056626;28;20501;-54
2021/09/18 08:38:04;;;;;;;67.13;59.83;;;20.90;1.00;;;;;;5056938;28;20827;-49
2021/09/18 08:40:38;;;;;;;59.90;53.77;;;21.20;1.00;;;;;;5056863;28;20924;-49
2021/09/18 08:43:06;;;;;;;60.17;54.03;;;21.30;1.00;;;;;;5056410;28;20504;-53
2021/09/18 08:45:34;;;;;;;62.07;55.57;;;21.40;1.00;;;;;;5056852;28;20505;-53
2021/09/18 08:48:03;;;;;;;60.83;54.43;;;21.70;1.00;;;;;;5056707;28;20497;-53
2021/09/18 08:50:36;;;;;;;56.73;50.60;;;22.20;1.00;;;;;;5056856;28;20485;-50
2021/09/18 08:53:06;;;;;;;62.63;56.23;;;22.40;1.00;;;;;;5056702;28;20552;-53
2021/09/18 08:55:39;;;;;;;59.47;53.50;;;22.60;1.00;;;;;;5056553;28;20462;-56
2021/09/18 08:58:08;;;;;;;57.90;52.20;;;22.70;1.00;;;;;;5057046;28;20497;-49
2021/09/18 09:00:47;;;;;;;53.00;48.00;;;23.10;1.00;;;;;;5056727;28;20469;-51
2021/09/18 09:03:15;;;;;;;50.47;45.37;;;23.30;99.90;;;;;;5056717;28;20474;-49
2021/09/18 09:05:45;;;;;;;50.67;45.50;;;23.30;99.90;;;;;;5056650;28;20496;-49
2021/09/18 09:08:14;;;;;;;50.03;44.83;;;23.20;99.90;;;;;;5056582;28;20525;-56
2021/09/18 09:10:43;;;;;;;50.50;45.50;;;23.10;99.90;;;;;;5055766;28;20836;-53
2021/09/18 09:13:14;;;;;;;47.47;42.97;;;23.20;99.90;;;;;;5056189;28;20443;-52
2021/09/18 09:15:43;;;;;;;45.70;41.37;;;23.40;99.90;;;;;;5056295;28;20478;-50
2021/09/18 09:18:21;;;;;;;46.23;41.73;;;23.20;99.90;;;;;;5056642;28;20490;-50
2021/09/18 09:20:51;;;;;;;45.60;40.90;;;23.40;99.90;;;;;;5058740;28;20489;-48
2021/09/18 09:23:21;;;;;;;44.50;40.00;;;23.60;99.90;;;;;;5060167;28;20810;-52
2021/09/18 09:25:53;;;;;;;42.43;38.33;;;23.80;99.90;;;;;;5059990;28;20508;-49
2021/09/18 09:28:31;;;;;;;41.93;37.80;;;23.50;99.90;;;;;;5059685;28;20502;-50
2021/09/18 09:31:10;;;;;;;41.13;37.07;;;23.80;99.90;;;;;;5059860;28;20468;-48
2021/09/18 09:33:58;;;;;;;35.77;32.57;;;24.30;99.90;;;;;;5060121;28;20497;-52
2021/09/18 09:36:27;;;;;;;36.50;33.10;;;24.70;99.90;;;;;;5060082;28;20543;-52
2021/09/18 09:38:55;;;;;;;38.30;34.57;;;25.00;99.90;;;;;;5059707;28;20889;-47
2021/09/18 09:41:32;;;;;;;36.47;32.77;;;25.10;99.90;;;;;;5059677;28;20916;-50
2021/09/18 09:44:04;;;;;;;35.03;31.73;;;25.20;99.90;;;;;;5059883;28;20437;-48
2021/09/18 09:46:35;;;;;;;30.10;27.40;;;25.30;99.90;;;;;;5059744;28;20437;-48
2021/09/18 09:49:13;;;;;;;26.47;23.87;;;24.80;99.90;;;;;;5059601;28;20494;-52
2021/09/18 09:51:46;;;;;;;19.70;17.80;;;24.70;99.90;;;;;;5059520;28;20531;-54
2021/09/18 09:54:25;;;;;;;20.40;18.50;;;25.10;99.90;;;;;;5078207;28;20711;-47
2021/09/18 09:57:07;;;;;;;16.47;14.97;;;24.80;99.90;;;;;;5079660;28;20465;-52
2021/09/18 09:59:34;;;;;;;22.27;20.27;;;25.20;99.90;;;;;;5079050;28;20492;-50
2021/09/18 10:02:02;;;;;;;21.63;19.47;;;25.30;99.90;;;;;;5079716;28;20487;-50
2021/09/18 10:04:30;;;;;;;20.07;18.17;;;25.00;99.90;;;;;;5079639;28;20514;-49
2021/09/18 10:07:00;;;;;;;21.13;19.10;;;25.00;99.90;;;;;;5079561;28;20806;-49
2021/09/18 10:09:27;;;;;;;21.93;20.03;;;25.00;99.90;;;;;;5077489;28;20551;-50
2021/09/18 10:11:58;;;;;;;24.70;22.50;;;25.00;99.90;;;;;;5059285;28;20461;-52
2021/09/18 10:14:31;;;;;;;21.27;19.27;;;24.90;99.90;;;;;;5059409;28;20458;-50
2021/09/18 10:16:59;;;;;;;19.90;18.10;;;24.50;99.90;;;;;;5059311;28;20437;-50
2021/09/18 10:20:00;;;;;;;21.73;19.77;;;24.80;99.90;;;;;;5059451;28;20458;-48
2021/09/18 10:25:22;;;;;;;20.60;18.70;;;25.90;99.90;;;;;;5058556;28;20441;-52
2021/09/18 10:28:01;;;;;;;18.17;16.47;;;26.10;99.90;;;;;;5058576;28;20490;-54
2021/09/18 10:30:33;;;;;;;18.27;16.70;;;26.50;99.90;;;;;;5059159;28;20494;-49
2021/09/18 10:33:00;;;;;;;16.73;15.23;;;26.80;99.90;;;;;;5057816;28;20493;-48
2021/09/18 10:35:53;;;;;;;16.27;14.87;;;26.30;99.90;;;;;;5058562;28;20481;-45
2021/09/18 10:38:24;;;;;;;13.57;12.27;;;26.90;99.90;;;;;;5058532;28;20919;-49
2021/09/18 10:41:02;;;;;;;20.03;18.27;;;27.20;99.90;;;;;;5058303;28;20752;-45
2021/09/18 10:43:33;;;;;;;16.60;15.07;;;27.40;99.90;;;;;;5058474;28;20569;-45
2021/09/18 10:46:03;;;;;;;19.13;17.30;;;27.20;99.90;;;;;;5056777;28;20513;-48
2021/09/18 10:48:47;;;;;;;19.77;18.00;;;25.70;99.90;;;;;;5059051;28;20966;-51
2021/09/18 10:51:36;;;;;;;16.50;15.10;;;26.60;99.90;;;;;;5057687;28;20759;-55
2021/09/18 10:54:12;;;;;;;18.10;16.40;;;27.30;99.90;;;;;;5048382;28;20442;-54
2021/09/18 10:57:03;;;;;;;20.97;19.27;;;26.50;99.90;;;;;;5049986;28;20503;-55
2021/09/18 10:59:43;;;;;;;20.00;18.00;;;25.10;99.90;;;;;;5051139;28;20481;-52
2021/09/18 11:02:48;;;;;;;19.13;17.13;;;24.00;99.90;;;;;;5057765;28;20476;-47
2021/09/18 11:05:49;;;;;;;18.20;16.70;;;23.90;99.90;;;;;;4975555;28;20471;-47
2021/09/18 11:08:28;;;;;;;17.90;16.20;;;24.40;99.90;;;;;;5006081;28;20449;-50
2021/09/18 11:11:00;;;;;;;16.40;14.90;;;25.10;99.90;;;;;;5057624;28;20450;-45
2021/09/18 11:13:32;;;;;;;15.67;14.20;;;25.80;99.90;;;;;;5057866;28;20915;-44
2021/09/18 11:16:04;;;;;;;15.33;14.00;;;25.90;99.90;;;;;;5058040;28;20509;-46
2021/09/18 11:18:37;;;;;;;18.17;16.57;;;25.30;99.90;;;;;;5057105;28;20462;-46
2021/09/18 11:21:25;;;;;;;16.50;14.97;;;26.20;99.90;;;;;;5057500;28;20512;-45
2021/09/18 11:23:54;;;;;;;15.30;14.00;;;26.30;99.90;;;;;;5057689;28;20490;-50
2021/09/18 11:26:46;;;;;;;14.87;13.40;;;26.70;99.90;;;;;;5057908;28;20808;-50
2021/09/18 11:29:23;;;;;;;12.20;11.10;;;26.80;99.90;;;;;;5057260;28;21005;-45
2021/09/18 11:32:11;;;;;;;12.57;11.57;;;27.00;99.90;;;;;;5056745;28;20497;-47
2021/09/18 11:34:41;;;;;;;12.53;11.53;;;27.20;99.90;;;;;;5058623;28;20470;-50
2021/09/18 11:37:10;;;;;;;11.80;10.80;;;27.40;99.90;;;;;;5059364;28;20482;-45
2021/09/18 11:39:44;;;;;;;11.83;10.83;;;27.60;99.90;;;;;;5057632;28;20908;-48
2021/09/18 11:42:36;;;;;;;14.10;13.00;;;27.50;99.90;;;;;;5057467;28;20492;-51
2021/09/18 11:45:10;;;;;;;16.10;14.80;;;27.10;99.90;;;;;;5057706;28;20461;-48
2021/09/18 11:47:42;;;;;;;13.63;12.47;;;27.00;99.90;;;;;;5057401;28;20489;-51
2021/09/18 11:50:27;;;;;;;18.10;16.50;;;27.70;99.90;;;;;;5056675;28;20959;-46
2021/09/18 11:52:56;;;;;;;18.53;17.00;;;27.80;99.90;;;;;;5037320;28;20473;-46
2021/09/18 11:55:38;;;;;;;18.73;17.23;;;27.80;99.90;;;;;;5043684;28;20458;-50
2021/09/18 11:58:13;;;;;;;17.73;16.30;;;27.20;99.90;;;;;;5055793;28;20548;-47
2021/09/18 12:00:46;;;;;;;17.73;16.20;;;26.10;99.90;;;;;;5057519;28;20991;-46
2021/09/18 12:03:38;;;;;;;16.17;14.67;;;24.90;99.90;;;;;;5057133;28;20494;-48
2021/09/18 12:06:07;;;;;;;19.17;17.47;;;25.20;99.90;;;;;;5057221;28;20560;-47
2021/09/18 12:08:36;;;;;;;16.07;14.70;;;25.50;99.90;;;;;;5057613;28;20458;-47
2021/09/18 12:11:12;;;;;;;16.17;14.83;;;26.10;99.90;;;;;;5041666;28;20491;-47
2021/09/18 12:13:47;;;;;;;14.73;13.33;;;26.50;99.90;;;;;;5036911;28;20463;-45
2021/09/18 12:16:15;;;;;;;14.33;13.10;;;26.70;99.90;;;;;;5037497;28;20508;-45
2021/09/18 12:18:44;;;;;;;16.00;14.80;;;27.00;99.90;;;;;;5037604;28;20455;-45
2021/09/18 12:21:17;;;;;;;13.70;12.60;;;27.20;99.90;;;;;;5051452;28;20482;-47
2021/09/18 12:23:47;;;;;;;16.17;14.70;;;27.30;99.90;;;;;;5055585;28;20792;-45
2021/09/18 12:26:17;;;;;;;14.83;13.53;;;26.70;99.90;;;;;;5056157;28;20458;-49
2021/09/18 12:28:48;;;;;;;16.10;14.80;;;27.00;99.90;;;;;;5047221;28;20489;-45
2021/09/18 12:31:20;;;;;;;18.00;16.60;;;26.50;99.90;;;;;;5036606;28;20880;-47
2021/09/18 12:33:50;;;;;;;17.90;16.37;;;26.50;99.90;;;;;;5037095;28;20562;-51
2021/09/18 12:36:20;;;;;;;17.70;16.30;;;25.50;99.90;;;;;;5036488;28;20463;-48
2021/09/18 12:38:48;;;;;;;19.57;17.87;;;24.80;99.90;;;;;;5036774;28;20769;-50
2021/09/18 12:41:18;;;;;;;20.30;18.50;;;24.00;99.90;;;;;;5036706;28;20771;-48
2021/09/18 12:43:57;;;;;;;18.57;16.97;;;23.70;99.90;;;;;;5040235;28;20467;-49
2021/09/18 12:46:26;;;;;;;16.53;15.20;;;24.50;99.90;;;;;;5056161;28;20461;-45